Philadelphia International Airport
KPHL : now visible

Airfield :











YOU CAN JOIN US ON...

 
LOGIN :

Register | Disclaimer

   EN    FR    IT 

 









Legend :    VFR   Marginal VFR   IFR   Intensive IFR   Very Intensive IFR
Visi :
Ceiling :
>= 8 km
>= 3000ft
5 to 8 km
1000 to 3000 ft
1500m to 5 km
500 to 1000 ft
800 to 1500m
200 to 500 ft
< 800m
< 200 ft
Symbols :   Thunderstorms  Fog  Heavy snow  Heavy precipitations  Wind > 20 kt






- Airport Elevation : 36 ft
- IATA code : PHL


KPHL - Philadelphia International

CURRENT METAR :
  • 141654Z 21010KT 10SM FEW190 BKN260 06/M06 A3040 RMK AO2 SLP294 T00561061

EXPIRED METARs :
  • 141554Z 20010KT 10SM FEW036 BKN260 04/M06 A3043 RMK AO2 SLP302 T00441056
  • 141354Z 20006KT 10SM BKN260 02/M08 A3046 RMK AO2 SLP313 T00171078

TAF KPHL
Valid from the 14 at 15:00 until the 15 at 18:00 UTC


141455Z 1415/1518 21010KT P6SM BKN250
FM142200 22005KT P6SM BKN250
FM150500 VRB03KT P6SM BKN250
FM151400 28008KT P6SM SCT250



MET'MAP, your aeronautical weather chart ! - Copyright ORBIFLY December 2007 - Disclaimer

ORBIFLY MET'MAP TEAM :

Programming & Development : Alexandra Zaïnal
Concept & Development : Baudouin d'Aumeries
Co-Development & Prog : Marc-Olivier Méhu
Technical & hardware support : Manuel Goepfert

Contact : metmap@orbifly.com




SOURCES & CREDITS :

   NOAA       Earth
Advisory